AirNav   Pilot Hours Calculator
 
 953 users online  

56LL Wade Airport
Waterman, Illinois, USA

GOING TO WATERMAN?


FAA INFORMATION EFFECTIVE 01 DECEMBER 2022

Location

FAA Identifier: 56LL
Lat/Long: 41-45-18.1060N 088-46-16.2960W
41-45.301767N 088-46.271600W
41.7550294,-88.7711933
(estimated)
Elevation: 810 ft. / 247 m (estimated)
Variation: 00W (1985)
From city: 1 mile S of WATERMAN, IL
Time zone: UTC -6 (UTC -5 during Daylight Saving Time)
Zip code: 60556

Airport Operations

Airport use: Private use. Permission required prior to landing
Activation date: 09/1978
Control tower: no
ARTCC: CHICAGO CENTER
FSS: KANKAKEE FLIGHT SERVICE STATION
Attendance: UNATNDD
Segmented circle: no
Lights: ACTVT LIRL 18/36 - 122.8.

Airport Communications

UNICOM: 122.8
WX AWOS-3 at DKB (11 nm N): 119.075 (815-748-2350)
WX ASOS at ARR (13 nm E): PHONE 630-466-5622
WX AWOS-3 at RPJ (16 nm NW): 125.2 (815-562-2955)

Nearby radio navigation aids

VOR radial/distance  VOR name  Freq  Var
DPAr245/20.5DUPAGE VOR/DME108.4002E
JOTr300/23.8JOLIET VOR/DME112.3002E
PLLr108/35.9POLO VOR/DME111.2003E

Airport Services

Runway Information

Runway 18/36

Dimensions: 3200 x 100 ft. / 975 x 30 m
Surface: turf
Runway edge lights: low intensity
RUNWAY 18  RUNWAY 36
Traffic pattern: leftleft

Airport Ownership and Management from official FAA records

Ownership: Privately-owned
Owner: WILLIAM J. WADE
8906 WATERMAN RD
WATERMAN, IL 60556
Phone 815-264-3650
Manager: WILLIAM J WADE
8906 WATERMAN RD
WATERMAN, IL 60556
Phone 815-264-3650

Airport Operational Statistics

Aircraft based on the field: 20
Single engine airplanes: 12
Multi engine airplanes: 2
Ultralights: 6
    

Additional Remarks

FOR CD CTC CHICAGO APCH AT 847-289-0926.

Instrument Procedures

There are no published instrument procedures at 56LL.

Some nearby airports with instrument procedures:

KDKB - De Kalb Taylor Municipal Airport (11 nm N)
KARR - Aurora Municipal Airport (13 nm E)
KRPJ - Rochelle Municipal Airport/Koritz Field (16 nm NW)
KDPA - DuPage Airport (25 nm E)
C09 - Morris Municipal Airport-James R. Washburn Field (25 nm SE)
 
Loc | Ops | Rwys | IFR | FBO | Links
Com | Nav | Svcs | Stats | Notes
Area around 56LL (Wade Airport)
 
Road maps at: MapQuest Bing Google
 
Aerial photo
WARNING: Photo may not be current or correct
Aerial photo of 56LL (Wade Airport)
Photo by Dwight Furleigh
Photo taken 23-Nov-2006

Do you have a better or more recent aerial photo of Wade Airport that you would like to share? If so, please send us your photo.

 
Sectional chart

 
Airport distance calculator
Flying to Wade Airport? Find the distance to fly.

From to 56LL

Sunrise and sunset
Times for 04-Dec-2022
 Local
(UTC-6)
 Zulu
(UTC)
Morning civil twilight06:3612:36
Sunrise07:0713:07
Sunset16:2422:24
Evening civil twilight16:5522:55

Current date and time
Zulu (UTC)  05-Dec-2022 01:33:46
Local (UTC-6)  04-Dec-2022 19:33:46
 
METAR
KDKB 
11nm N 
050115Z AUTO 20009KT 10SM CLR M01/M07 A3002 RMK AO2 T10151070
KARR 
13nm E 
050052Z 18007KT 10SM CLR M01/M08 A3003 RMK AO2 SLP180 T10061083
KRPJ 
15nm NW 
050115Z AUTO 20009KT 10SM CLR M03/M07 A3003 RMK AO2 T10271071 TSNO
TAF
KDPA 
25nm NE 
042055Z 0421/0518 23011G18KT P6SM FEW250 FM042200 22009KT P6SM FEW250 FM050200 21008KT P6SM SCT250 WS010/24035KT FM051200 20011G17KT P6SM BKN100
KRFD 
30nm NW 
042055Z 0421/0518 22009KT P6SM FEW250 FM050200 21008KT P6SM SCT250 WS010/24035KT FM051200 20011G17KT P6SM BKN100
NOTAMs
Click for the latest NOTAMs
NOTAMs are issued by the DoD/FAA and will open in a separate window not controlled by AirNav.

 

 
 

Would you like to see your business listed on this page?

 If your business provides an interesting product or service to pilots, flight crews, aircraft, or users of the Wade Airport, you should consider listing it here.  To start the listing process, click on the button below
 
Add a business
 

Other Pages about Wade Airport

Update a link
 
Copyright © AirNav, LLC. All rights reserved. Privacy Policy  Contact